Aérodrome :
LOGIN :

S'inscrire | Disclaimer

   EN    FR    IT 

 










Légende :    VFR   VFR Marginal   IFR   IFR Intensif   IFR Très Intensif
Visi : 
Plafond : 
>= 8 km
>= 3000ft
5 à 8 km
1000 à 3000 ft
1500m à 5 km
500 à 1000 ft
800 à 1500m
200 à 500 ft
< 800m
< 200 ft
Symboles :   Orages  Brouillard  Fortes neiges  Fortes précipitations  Vent > 20 kt
SIGMETs :   Divers  Orages  Givrage  Turbulence  Onde Orograph.  Cendres Volcan.






- Altitude de l'aérodrome : 143 ft
- Code IATA : VDP


EKVD - Kolding Vamdrup

DERNIER METAR :
  • 140320Z AUTO 26020KT //// ///////// 13/10 Q1006

METARs EXPIRÉS :
  • 140250Z AUTO 25022KT //// ///////// 13/10 Q1005
  • 140220Z AUTO 25026G36KT //// ///////// 14/11 Q1004
  • 140150Z AUTO 24023G34KT //// ///////// 14/11 Q1004
  • 140120Z AUTO 24023KT //// ///////// 14/11 Q1003
  • 140050Z AUTO 24023G33KT //// ///////// 14/11 Q1002

Prévision TAF périmée.



MET'MAP, la Météo Aéronautique d'un coup d'oeil ! - Copyright ORBIFLY Décembre 2007 - Disclaimer

ORBIFLY MET'MAP TEAM :

Programmation & Développement : Alexandra Zaïnal
Conception & Développement : Baudouin d'Aumeries
Co-Programmation & Développement : Marc-Olivier Méhu
Soutien technique & logistique : Manuel Goepfert

Contact : metmap@orbifly.com




SOURCES & CREDITS :

   NOAA